Time;durP1;ratioP1;P1;durP2;ratioP2;P2;SDS_P1;SDS_P2;PMS_P1;PMS_P2;Temp;Humidity;BMP_temperature;BMP_pressure;BME280_temperature;BME280_humidity;BME280_pressure;Samples;Min_cycle;Max_cycle;Signal;HPM_P1;HPM_P2
2023/06/15 00:02:15;;;;;;;14.02;9.90;;;20.10;99.90;;;;;;5055257;28;20422;-73
2023/06/15 00:04:41;;;;;;;12.60;10.13;;;20.00;99.90;;;;;;5056034;28;20470;-73
2023/06/15 00:07:08;;;;;;;15.30;10.63;;;20.10;99.90;;;;;;5039505;28;20496;-73
2023/06/15 00:09:34;;;;;;;15.73;9.77;;;20.00;99.90;;;;;;5058797;28;21211;-73
2023/06/15 00:12:00;;;;;;;14.00;9.73;;;19.90;99.90;;;;;;5059337;28;21199;-73
2023/06/15 00:14:27;;;;;;;15.70;9.57;;;19.90;99.90;;;;;;5069850;28;20443;-73
2023/06/15 00:16:54;;;;;;;13.98;9.23;;;19.90;99.90;;;;;;5057619;28;20425;-73
2023/06/15 00:19:21;;;;;;;13.80;9.90;;;19.90;99.90;;;;;;5058837;28;20927;-73
2023/06/15 00:21:53;;;;;;;13.40;9.82;;;19.80;99.90;;;;;;5057060;28;20421;-73
2023/06/15 00:24:19;;;;;;;14.93;9.55;;;19.80;99.90;;;;;;5055337;28;20476;-73
2023/06/15 00:26:46;;;;;;;17.13;9.75;;;19.80;99.90;;;;;;5041957;28;20404;-73
2023/06/15 00:29:12;;;;;;;13.23;10.10;;;19.80;99.90;;;;;;5060485;28;20483;-74
2023/06/15 00:31:39;;;;;;;12.82;10.68;;;19.70;99.90;;;;;;5057152;28;20428;-73
2023/06/15 00:34:05;;;;;;;13.80;10.60;;;19.70;99.90;;;;;;5052443;28;20422;-74
2023/06/15 00:36:31;;;;;;;13.60;10.77;;;19.70;99.90;;;;;;5057909;28;20426;-74
2023/06/15 00:38:58;;;;;;;15.32;11.10;;;19.70;99.90;;;;;;5062209;28;20930;-73
2023/06/15 00:41:25;;;;;;;13.75;11.10;;;19.80;99.90;;;;;;5058245;28;20463;-73
2023/06/15 00:43:53;;;;;;;14.50;11.30;;;19.80;99.90;;;;;;5054163;28;20779;-73
2023/06/15 00:46:20;;;;;;;14.77;11.35;;;19.70;99.90;;;;;;5057270;28;20413;-73
2023/06/15 00:48:46;;;;;;;16.10;11.88;;;19.70;99.90;;;;;;5055221;28;20467;-73
2023/06/15 00:51:13;;;;;;;13.90;11.55;;;19.80;99.90;;;;;;5053708;28;21081;-73
2023/06/15 00:53:42;;;;;;;14.80;11.85;;;19.80;99.90;;;;;;5055171;28;20747;-73
2023/06/15 00:56:09;;;;;;;16.10;11.52;;;19.80;99.90;;;;;;5061298;28;20744;-73
2023/06/15 00:58:36;;;;;;;15.43;11.77;;;19.70;99.90;;;;;;5055920;28;20522;-73
2023/06/15 01:01:03;;;;;;;16.90;11.93;;;19.70;99.90;;;;;;5053950;28;20416;-73
2023/06/15 01:03:30;;;;;;;16.75;11.48;;;19.80;99.90;;;;;;5057189;28;20427;-74
2023/06/15 01:05:58;;;;;;;14.88;11.20;;;19.80;99.90;;;;;;5058940;28;20461;-73
2023/06/15 01:08:26;;;;;;;15.32;11.40;;;19.80;99.90;;;;;;5055444;28;20439;-73
2023/06/15 01:10:56;;;;;;;15.32;10.98;;;19.80;99.90;;;;;;5054745;28;20388;-74
2023/06/15 01:13:23;;;;;;;13.52;10.65;;;19.80;99.90;;;;;;5036435;28;20432;-73
2023/06/15 01:15:54;;;;;;;14.93;11.02;;;19.80;99.90;;;;;;5055540;28;20574;-74
2023/06/15 01:18:24;;;;;;;13.63;11.20;;;19.80;99.90;;;;;;5057334;28;20463;-73
2023/06/15 01:20:53;;;;;;;16.85;11.38;;;19.80;99.90;;;;;;5062620;28;20499;-73
2023/06/15 01:24:09;;;;;;;15.35;11.05;;;19.80;99.90;;;;;;5056381;28;20429;-73
2023/06/15 01:26:38;;;;;;;13.27;10.90;;;19.70;99.90;;;;;;5044771;28;21384;-73
2023/06/15 01:29:06;;;;;;;14.55;11.50;;;19.60;99.90;;;;;;5056473;28;20549;-74
2023/06/15 01:31:33;;;;;;;13.17;10.93;;;19.60;99.90;;;;;;5063085;28;20737;-73
2023/06/15 01:34:00;;;;;;;14.02;10.23;;;19.60;99.90;;;;;;5057713;28;20408;-73
2023/06/15 01:36:27;;;;;;;13.00;10.88;;;19.50;99.90;;;;;;5061095;28;20420;-73
2023/06/15 01:38:56;;;;;;;15.00;10.70;;;19.50;99.90;;;;;;5060567;28;20557;-73
2023/06/15 01:41:25;;;;;;;13.27;10.30;;;19.40;99.90;;;;;;5058904;28;20418;-73
2023/06/15 01:43:53;;;;;;;17.25;11.32;;;19.40;99.90;;;;;;5035535;28;20416;-73
2023/06/15 01:46:22;;;;;;;16.83;10.85;;;19.40;99.90;;;;;;5056869;28;20443;-73
2023/06/15 01:48:50;;;;;;;16.05;10.60;;;19.40;99.90;;;;;;5060988;28;20445;-71
2023/06/15 01:51:17;;;;;;;16.45;10.15;;;19.50;99.90;;;;;;5056491;28;20421;-71
2023/06/15 01:53:44;;;;;;;15.48;10.15;;;19.50;99.90;;;;;;5064677;28;20398;-72
2023/06/15 01:56:11;;;;;;;17.50;10.05;;;19.50;99.90;;;;;;5061456;28;20464;-72
2023/06/15 01:58:37;;;;;;;13.27;10.10;;;19.60;99.90;;;;;;5061104;28;20584;-72
2023/06/15 02:01:03;;;;;;;13.27;9.18;;;19.60;99.90;;;;;;5060608;28;20461;-72
2023/06/15 02:03:31;;;;;;;11.80;8.75;;;19.60;99.90;;;;;;5056121;28;20515;-72
2023/06/15 02:05:57;;;;;;;12.82;8.88;;;19.60;99.90;;;;;;5056089;28;20415;-72
2023/06/15 02:08:23;;;;;;;14.27;8.70;;;19.60;99.90;;;;;;5059825;28;20432;-72
2023/06/15 02:10:50;;;;;;;13.80;8.43;;;19.60;99.90;;;;;;5064024;28;20405;-71
2023/06/15 02:13:17;;;;;;;15.45;8.32;;;19.50;99.90;;;;;;5057938;28;20411;-72
2023/06/15 02:15:44;;;;;;;11.32;7.68;;;19.50;99.90;;;;;;5062086;28;20409;-71
2023/06/15 02:18:14;;;;;;;13.50;8.15;;;19.50;99.90;;;;;;5061595;28;20412;-71
2023/06/15 02:20:42;;;;;;;11.77;8.10;;;19.50;99.90;;;;;;5059433;28;20419;-72
2023/06/15 02:23:10;;;;;;;12.70;7.95;;;19.50;99.90;;;;;;5057711;28;21441;-71
2023/06/15 02:25:37;;;;;;;11.70;7.53;;;19.60;99.90;;;;;;5058944;28;20464;-71
2023/06/15 02:28:04;;;;;;;12.88;7.30;;;19.50;99.90;;;;;;5059461;28;20416;-71
2023/06/15 02:30:31;;;;;;;12.25;6.97;;;19.50;99.90;;;;;;5063933;28;20439;-71
2023/06/15 02:33:00;;;;;;;11.80;7.60;;;19.40;99.90;;;;;;5059842;28;20496;-71
2023/06/15 02:35:27;;;;;;;10.88;7.00;;;19.40;99.90;;;;;;5047125;28;20405;-71
2023/06/15 02:37:53;;;;;;;11.00;7.18;;;19.30;99.90;;;;;;5063532;28;21068;-71
2023/06/15 02:40:20;;;;;;;10.50;7.00;;;19.40;99.90;;;;;;5066749;28;20425;-71
2023/06/15 02:42:46;;;;;;;11.57;6.80;;;19.30;99.90;;;;;;5065156;28;20462;-71
2023/06/15 02:45:13;;;;;;;12.70;7.13;;;19.30;99.90;;;;;;5046886;28;20409;-71
2023/06/15 02:47:39;;;;;;;9.95;6.70;;;19.30;99.90;;;;;;5055487;28;20482;-71
2023/06/15 02:50:06;;;;;;;10.63;6.90;;;19.30;99.90;;;;;;5053172;28;20419;-72
2023/06/15 02:52:36;;;;;;;9.60;6.50;;;19.40;99.90;;;;;;5058462;28;20415;-72
2023/06/15 02:55:03;;;;;;;10.95;6.63;;;19.40;99.90;;;;;;5056972;28;20413;-72
2023/06/15 02:57:29;;;;;;;11.77;7.20;;;19.40;99.90;;;;;;5061701;28;20409;-71
2023/06/15 02:59:56;;;;;;;9.85;6.47;;;19.50;99.90;;;;;;5063546;28;20417;-71
2023/06/15 03:02:22;;;;;;;12.47;6.63;;;19.50;99.90;;;;;;5058858;28;20544;-71
2023/06/15 03:04:50;;;;;;;10.48;6.72;;;19.50;99.90;;;;;;5063739;28;20407;-71
2023/06/15 03:07:22;;;;;;;8.68;6.38;;;19.40;99.90;;;;;;5059190;28;21032;-72
2023/06/15 03:09:51;;;;;;;9.75;6.28;;;19.50;99.90;;;;;;5062576;28;20828;-71
2023/06/15 03:12:18;;;;;;;10.50;6.40;;;19.40;99.90;;;;;;5058283;28;20494;-71
2023/06/15 03:14:50;;;;;;;11.30;5.87;;;19.40;99.90;;;;;;5061486;28;20426;-71
2023/06/15 03:17:18;;;;;;;10.82;6.20;;;19.50;99.90;;;;;;5060619;28;20900;-71
2023/06/15 03:19:47;;;;;;;9.00;6.10;;;19.40;99.90;;;;;;5065596;28;21067;-71
2023/06/15 03:22:14;;;;;;;9.23;6.20;;;19.30;99.90;;;;;;5061118;28;20485;-71
2023/06/15 03:24:42;;;;;;;9.15;6.13;;;19.40;99.90;;;;;;5065611;28;20436;-72
2023/06/15 03:27:11;;;;;;;7.07;6.07;;;19.50;99.90;;;;;;5063524;28;20392;-72
2023/06/15 03:29:38;;;;;;;12.38;6.40;;;19.50;99.90;;;;;;5067798;28;20843;-71
2023/06/15 03:32:09;;;;;;;10.30;6.10;;;19.50;99.90;;;;;;5062616;28;20404;-71
2023/06/15 03:34:36;;;;;;;8.55;5.80;;;19.40;99.90;;;;;;5060636;28;20433;-71
2023/06/15 03:37:02;;;;;;;8.55;5.80;;;19.40;99.90;;;;;;5073610;28;20409;-71
2023/06/15 03:39:28;;;;;;;9.57;6.05;;;19.40;99.90;;;;;;5058248;28;20536;-71
2023/06/15 03:41:54;;;;;;;10.70;6.18;;;19.50;99.90;;;;;;5060242;28;20411;-71
2023/06/15 03:44:21;;;;;;;7.30;5.73;;;19.50;99.90;;;;;;5059560;28;20493;-71
2023/06/15 03:46:47;;;;;;;9.43;6.10;;;19.50;99.90;;;;;;5059388;28;20413;-72
2023/06/15 03:49:14;;;;;;;10.33;5.60;;;19.50;99.90;;;;;;5043502;28;20822;-71
2023/06/15 03:51:41;;;;;;;8.07;5.53;;;19.50;99.90;;;;;;5061817;28;20413;-71
2023/06/15 03:54:07;;;;;;;9.65;5.82;;;19.60;99.90;;;;;;5060575;28;20418;-71
2023/06/15 03:56:33;;;;;;;10.80;6.40;;;19.60;99.90;;;;;;5058830;28;20434;-71
2023/06/15 03:58:59;;;;;;;7.97;5.72;;;19.50;99.90;;;;;;5051299;28;20440;-72
2023/06/15 04:01:25;;;;;;;11.25;6.35;;;19.60;99.90;;;;;;5052014;28;20414;-72
2023/06/15 04:03:54;;;;;;;9.02;6.55;;;19.60;99.90;;;;;;5053791;28;20427;-72
2023/06/15 04:06:24;;;;;;;9.03;6.33;;;19.60;99.90;;;;;;5055596;28;20440;-72
2023/06/15 04:08:51;;;;;;;10.68;6.18;;;19.70;99.90;;;;;;5051933;28;20409;-72
2023/06/15 04:11:17;;;;;;;9.02;6.13;;;19.80;99.90;;;;;;5052515;28;20432;-71
2023/06/15 04:13:44;;;;;;;11.27;6.53;;;19.90;99.90;;;;;;5051956;28;20498;-71
2023/06/15 04:16:11;;;;;;;11.25;6.10;;;19.90;99.90;;;;;;5053015;28;20423;-72
2023/06/15 04:18:37;;;;;;;10.60;6.03;;;20.00;99.90;;;;;;5057213;28;20795;-72
2023/06/15 04:21:04;;;;;;;12.88;5.93;;;20.00;99.90;;;;;;5053507;28;20451;-72
2023/06/15 04:23:30;;;;;;;8.93;5.60;;;20.10;99.90;;;;;;5055392;28;20905;-72
2023/06/15 04:26:00;;;;;;;8.10;5.72;;;20.20;99.90;;;;;;5072222;28;20756;-72
2023/06/15 04:28:27;;;;;;;8.27;5.53;;;20.30;99.90;;;;;;5053346;28;20413;-72
2023/06/15 04:31:10;;;;;;;10.88;5.47;;;20.30;99.90;;;;;;5040697;28;20418;-72
2023/06/15 04:33:43;;;;;;;7.55;5.30;;;20.40;99.90;;;;;;5051287;28;20412;-72
2023/06/15 04:36:15;;;;;;;8.82;5.53;;;20.50;99.90;;;;;;5033425;28;20499;-72
2023/06/15 04:38:46;;;;;;;10.13;5.53;;;20.50;99.90;;;;;;5052660;28;20893;-73
2023/06/15 04:41:22;;;;;;;9.63;5.23;;;20.60;99.90;;;;;;5052384;28;20425;-72
2023/06/15 04:43:49;;;;;;;6.87;5.13;;;20.60;99.90;;;;;;5039888;28;20447;-71
2023/06/15 04:46:16;;;;;;;7.50;5.07;;;20.60;99.90;;;;;;5037832;28;20977;-72
2023/06/15 04:48:44;;;;;;;5.72;4.70;;;20.70;99.90;;;;;;5052255;28;21185;-72
2023/06/15 04:51:15;;;;;;;7.30;4.97;;;20.80;99.90;;;;;;5055907;28;20414;-72
2023/06/15 04:53:42;;;;;;;8.60;4.80;;;20.90;99.90;;;;;;5052725;28;20766;-72
2023/06/15 04:56:10;;;;;;;8.60;4.90;;;20.90;99.90;;;;;;5055324;28;20506;-72
2023/06/15 04:58:36;;;;;;;7.70;4.90;;;20.90;99.90;;;;;;5056881;28;20463;-72
2023/06/15 05:01:02;;;;;;;9.90;5.57;;;20.90;99.90;;;;;;5056816;28;20831;-71
2023/06/15 05:03:29;;;;;;;8.75;5.25;;;20.90;99.90;;;;;;5048748;28;20455;-71
2023/06/15 05:05:55;;;;;;;10.32;5.40;;;20.90;99.90;;;;;;5057839;28;20406;-71
2023/06/15 05:08:22;;;;;;;7.80;5.10;;;21.00;99.90;;;;;;5060669;28;21002;-72
2023/06/15 05:10:50;;;;;;;8.18;4.88;;;21.00;99.90;;;;;;5058181;28;20410;-71
2023/06/15 05:13:16;;;;;;;8.63;5.03;;;21.00;99.90;;;;;;5057838;28;20470;-72
2023/06/15 05:15:47;;;;;;;7.53;4.97;;;21.00;99.90;;;;;;5042195;28;20877;-71
2023/06/15 05:18:13;;;;;;;8.67;5.13;;;21.10;99.90;;;;;;5051489;28;20416;-71
2023/06/15 05:20:39;;;;;;;7.65;5.45;;;21.20;99.90;;;;;;5055022;28;20922;-71
2023/06/15 05:23:07;;;;;;;6.50;4.95;;;21.20;99.90;;;;;;5052825;28;20419;-72
2023/06/15 05:25:34;;;;;;;9.02;4.90;;;21.30;99.90;;;;;;5058622;28;20434;-71
2023/06/15 05:28:00;;;;;;;7.13;5.00;;;21.30;99.90;;;;;;5057972;28;20416;-72
2023/06/15 05:30:26;;;;;;;8.85;4.90;;;21.30;99.90;;;;;;5072642;28;20424;-71
2023/06/15 05:32:56;;;;;;;8.82;5.30;;;21.40;99.90;;;;;;5052211;28;20409;-71
2023/06/15 05:35:22;;;;;;;8.82;4.90;;;21.40;99.90;;;;;;5059202;28;20448;-72
2023/06/15 05:37:48;;;;;;;8.98;4.93;;;21.50;99.90;;;;;;5054605;28;20696;-71
2023/06/15 05:40:15;;;;;;;7.17;4.80;;;21.50;99.90;;;;;;5058594;28;20447;-72
2023/06/15 05:42:41;;;;;;;9.05;5.30;;;21.60;99.90;;;;;;5057207;28;20777;-72
2023/06/15 05:45:08;;;;;;;8.55;5.43;;;21.70;99.90;;;;;;5069408;28;20419;-72
2023/06/15 05:47:35;;;;;;;9.40;5.25;;;21.70;99.90;;;;;;5053212;28;20441;-72
2023/06/15 05:50:01;;;;;;;8.10;5.10;;;21.80;99.90;;;;;;5072208;28;20417;-71
2023/06/15 05:52:28;;;;;;;8.07;5.07;;;21.90;99.90;;;;;;5051561;28;20409;-71
2023/06/15 05:54:54;;;;;;;10.93;5.22;;;21.90;99.90;;;;;;5060038;28;20929;-72
2023/06/15 05:57:20;;;;;;;8.80;5.20;;;22.00;99.90;;;;;;5056274;28;20510;-71
2023/06/15 05:59:46;;;;;;;7.75;4.78;;;22.00;99.90;;;;;;5050735;28;20565;-71
2023/06/15 06:02:13;;;;;;;9.90;5.45;;;22.10;99.90;;;;;;5053990;28;21666;-71
2023/06/15 06:04:39;;;;;;;10.13;5.18;;;22.10;99.90;;;;;;5054917;28;21012;-71
2023/06/15 06:07:06;;;;;;;8.48;4.80;;;22.20;99.90;;;;;;5069127;28;20430;-72
2023/06/15 06:09:39;;;;;;;10.93;5.22;;;22.20;99.90;;;;;;5054288;28;20501;-71
2023/06/15 06:12:06;;;;;;;12.50;5.95;;;22.30;99.90;;;;;;5053154;28;20576;-71
2023/06/15 06:14:33;;;;;;;9.27;5.13;;;22.40;99.90;;;;;;5048935;28;20737;-71
2023/06/15 06:16:59;;;;;;;11.40;5.68;;;22.40;99.90;;;;;;5046515;28;20520;-72
2023/06/15 06:19:25;;;;;;;10.90;5.47;;;22.50;99.90;;;;;;5048914;28;20434;-72
2023/06/15 06:21:51;;;;;;;14.95;5.93;;;22.50;99.90;;;;;;5055850;28;20413;-72
2023/06/15 06:24:18;;;;;;;10.50;5.55;;;22.70;99.90;;;;;;5052487;28;20463;-72
2023/06/15 06:26:45;;;;;;;14.15;5.85;;;22.80;99.90;;;;;;5046858;28;20416;-72
2023/06/15 06:29:11;;;;;;;11.93;5.90;;;22.80;99.90;;;;;;5048403;28;20489;-72
2023/06/15 06:31:38;;;;;;;12.98;5.90;;;22.90;99.90;;;;;;5048251;28;20426;-71
2023/06/15 06:34:05;;;;;;;13.20;5.83;;;22.90;99.90;;;;;;5052722;28;20794;-72
2023/06/15 06:36:32;;;;;;;13.70;5.50;;;23.00;99.90;;;;;;5052247;28;21372;-71
2023/06/15 06:38:58;;;;;;;12.85;5.95;;;23.10;99.90;;;;;;5058995;28;20439;-71
2023/06/15 06:41:25;;;;;;;15.43;6.33;;;23.10;99.90;;;;;;5055771;28;20442;-71
2023/06/15 06:43:52;;;;;;;10.43;5.70;;;23.10;99.90;;;;;;5056374;28;20734;-71
2023/06/15 06:46:19;;;;;;;11.73;5.78;;;23.30;99.90;;;;;;5056864;28;20782;-72
2023/06/15 06:48:45;;;;;;;14.68;5.95;;;23.40;99.90;;;;;;5051830;28;21302;-72
2023/06/15 06:51:11;;;;;;;11.07;5.90;;;23.50;99.90;;;;;;5039482;28;20414;-71
2023/06/15 06:53:38;;;;;;;13.90;5.80;;;23.50;99.90;;;;;;5046630;28;20444;-72
2023/06/15 06:56:04;;;;;;;11.93;6.25;;;23.50;99.90;;;;;;5049918;28;21045;-71
2023/06/15 06:58:30;;;;;;;12.38;5.85;;;23.60;99.90;;;;;;5051691;28;20424;-71
2023/06/15 07:00:57;;;;;;;14.90;6.20;;;23.70;99.90;;;;;;5049532;28;20464;-74
2023/06/15 07:03:23;;;;;;;14.68;6.35;;;23.70;99.90;;;;;;5060339;28;21009;-74
2023/06/15 07:05:50;;;;;;;14.70;6.28;;;23.80;99.90;;;;;;5054477;28;20454;-73
2023/06/15 07:08:16;;;;;;;12.68;6.20;;;23.80;99.90;;;;;;5044977;28;20422;-73
2023/06/15 07:10:43;;;;;;;12.82;6.40;;;23.80;99.90;;;;;;5046397;28;20407;-74
2023/06/15 07:13:09;;;;;;;12.87;6.07;;;23.80;99.90;;;;;;5051776;28;20415;-74
2023/06/15 07:15:36;;;;;;;11.77;5.78;;;23.90;99.90;;;;;;5053345;28;20413;-73
2023/06/15 07:18:02;;;;;;;13.02;5.70;;;24.00;99.90;;;;;;5050027;28;20415;-73
2023/06/15 07:20:29;;;;;;;12.60;6.10;;;24.10;99.90;;;;;;5052467;28;21111;-73
2023/06/15 07:22:55;;;;;;;12.77;5.97;;;24.10;99.90;;;;;;5062346;28;20506;-74
2023/06/15 07:25:21;;;;;;;14.25;6.32;;;24.20;99.90;;;;;;5042637;28;20424;-74
2023/06/15 07:27:48;;;;;;;13.73;6.13;;;24.40;99.90;;;;;;5051894;28;20411;-73
2023/06/15 07:30:14;;;;;;;14.02;5.85;;;24.50;99.90;;;;;;5050448;28;20467;-73
2023/06/15 07:32:41;;;;;;;11.50;5.50;;;24.50;99.90;;;;;;5053131;28;20424;-74
2023/06/15 07:35:07;;;;;;;13.73;6.00;;;24.60;99.90;;;;;;5052624;28;20407;-74
2023/06/15 07:37:34;;;;;;;14.00;6.30;;;24.70;99.90;;;;;;5056190;28;20415;-74
2023/06/15 07:40:00;;;;;;;12.55;6.05;;;24.80;99.90;;;;;;5059089;28;20405;-74
2023/06/15 07:42:26;;;;;;;13.85;5.38;;;24.90;99.90;;;;;;5059348;28;20524;-74
2023/06/15 07:44:52;;;;;;;10.90;5.43;;;25.10;99.90;;;;;;5073486;28;20783;-74
2023/06/15 07:47:18;;;;;;;17.02;5.88;;;25.10;99.90;;;;;;5050953;28;20456;-74
2023/06/15 07:49:45;;;;;;;15.80;5.80;;;25.20;99.90;;;;;;5043105;28;20986;-74
2023/06/15 07:52:11;;;;;;;13.27;5.38;;;25.20;99.90;;;;;;5058531;28;20413;-74
2023/06/15 07:54:38;;;;;;;11.70;5.35;;;25.20;99.90;;;;;;5067927;28;20417;-74
2023/06/15 07:57:04;;;;;;;14.77;5.60;;;25.40;99.90;;;;;;5074374;28;21052;-73
2023/06/15 07:59:31;;;;;;;14.07;5.78;;;25.40;99.90;;;;;;5059011;28;20407;-74
2023/06/15 08:01:57;;;;;;;21.13;6.00;;;25.30;99.90;;;;;;5057718;28;20764;-74
2023/06/15 08:04:23;;;;;;;15.13;5.60;;;25.40;99.90;;;;;;5073402;28;20413;-75
2023/06/15 08:06:49;;;;;;;11.70;5.32;;;25.50;99.90;;;;;;5067199;28;20511;-74
2023/06/15 08:09:15;;;;;;;16.08;5.47;;;25.50;99.90;;;;;;5051348;28;20430;-74
2023/06/15 08:11:42;;;;;;;13.57;5.47;;;25.60;99.90;;;;;;5071237;28;20422;-74
2023/06/15 08:14:08;;;;;;;12.80;4.82;;;25.50;99.90;;;;;;5061147;28;20796;-74
2023/06/15 08:16:34;;;;;;;12.93;5.57;;;25.70;99.90;;;;;;5058061;28;20514;-74
2023/06/15 08:19:00;;;;;;;14.70;5.55;;;26.00;99.90;;;;;;5060657;28;20431;-74
2023/06/15 08:21:27;;;;;;;13.02;5.10;;;25.90;99.90;;;;;;5055925;28;20480;-74
2023/06/15 08:23:53;;;;;;;11.63;5.10;;;25.90;99.90;;;;;;5057152;28;20434;-74
2023/06/15 08:26:20;;;;;;;9.75;5.05;;;25.80;99.90;;;;;;5044326;28;20863;-74
2023/06/15 08:28:46;;;;;;;12.25;4.97;;;26.00;99.90;;;;;;5051677;28;20927;-74
2023/06/15 08:31:12;;;;;;;14.10;5.43;;;26.10;99.90;;;;;;5058203;28;20793;-74
2023/06/15 08:33:38;;;;;;;9.77;5.07;;;26.40;99.90;;;;;;5071402;28;20411;-74
2023/06/15 08:36:05;;;;;;;11.90;5.18;;;26.30;99.90;;;;;;5062279;28;20416;-74
2023/06/15 08:38:31;;;;;;;12.07;5.15;;;26.30;99.90;;;;;;5071666;28;20404;-74
2023/06/15 08:40:58;;;;;;;8.57;4.85;;;26.40;99.90;;;;;;5062318;28;20555;-74
2023/06/15 08:43:26;;;;;;;11.48;4.80;;;26.40;99.90;;;;;;5062460;28;20427;-74
2023/06/15 08:45:57;;;;;;;8.45;4.30;;;26.50;99.90;;;;;;5065771;28;21114;-74
2023/06/15 08:48:26;;;;;;;10.88;4.72;;;26.70;99.90;;;;;;5065941;28;20396;-74
2023/06/15 08:50:54;;;;;;;7.30;4.35;;;26.90;99.90;;;;;;5059704;28;20909;-74
2023/06/15 08:53:22;;;;;;;7.80;4.25;;;26.80;99.90;;;;;;5062682;28;21281;-74
2023/06/15 08:55:49;;;;;;;9.13;4.00;;;26.80;99.90;;;;;;5052844;28;20436;-74
2023/06/15 08:58:15;;;;;;;8.63;4.43;;;26.90;99.90;;;;;;5065046;28;20427;-74
2023/06/15 09:00:42;;;;;;;6.97;4.05;;;27.10;99.90;;;;;;5062035;28;20847;-74
2023/06/15 09:03:10;;;;;;;6.82;3.97;;;27.20;99.90;;;;;;5041728;28;20421;-74
2023/06/15 09:05:36;;;;;;;12.60;4.40;;;27.20;99.90;;;;;;5052410;28;20499;-74
2023/06/15 09:08:03;;;;;;;10.35;4.35;;;27.40;99.90;;;;;;5055889;28;20916;-74
2023/06/15 09:10:35;;;;;;;11.75;4.30;;;27.30;99.90;;;;;;5058081;28;20890;-74
2023/06/15 09:13:01;;;;;;;9.18;4.22;;;27.30;99.90;;;;;;5058134;28;20413;-74
2023/06/15 09:15:30;;;;;;;9.67;4.67;;;27.30;99.90;;;;;;5054658;28;20418;-74
2023/06/15 09:18:02;;;;;;;9.35;4.90;;;27.40;99.90;;;;;;5043025;28;20487;-74
2023/06/15 09:20:36;;;;;;;10.23;4.70;;;27.50;99.90;;;;;;5054782;28;20407;-74
2023/06/15 09:23:05;;;;;;;11.95;4.40;;;27.70;99.90;;;;;;5054963;28;20442;-74
2023/06/15 09:25:33;;;;;;;9.93;4.47;;;27.70;99.90;;;;;;5059286;28;20961;-74
2023/06/15 09:28:02;;;;;;;8.38;4.35;;;27.80;99.90;;;;;;5046908;28;21031;-74
2023/06/15 09:30:40;;;;;;;9.02;4.22;;;27.80;99.90;;;;;;5067991;28;20934;-75
2023/06/15 09:33:18;;;;;;;8.02;4.20;;;28.10;99.90;;;;;;5052003;28;20416;-74
2023/06/15 09:36:00;;;;;;;8.97;4.03;;;28.00;99.90;;;;;;5064131;28;20413;-74
2023/06/15 09:38:36;;;;;;;7.30;3.97;;;28.10;99.90;;;;;;5066095;28;20509;-74
2023/06/15 09:41:07;;;;;;;10.27;4.20;;;28.10;99.90;;;;;;5076450;28;20415;-75
2023/06/15 09:43:35;;;;;;;8.00;3.70;;;28.10;99.90;;;;;;5058152;28;20876;-75
2023/06/15 09:46:13;;;;;;;11.05;4.15;;;28.20;99.90;;;;;;5059641;28;20539;-74
2023/06/15 09:48:46;;;;;;;8.02;3.97;;;28.20;99.90;;;;;;5055986;28;20409;-74
2023/06/15 09:51:15;;;;;;;11.18;4.25;;;28.20;99.90;;;;;;5069051;28;21176;-74
2023/06/15 09:53:43;;;;;;;8.77;4.10;;;28.40;99.90;;;;;;5051309;28;20598;-74
2023/06/15 09:56:11;;;;;;;8.27;3.83;;;28.30;99.90;;;;;;5048096;28;20464;-75
2023/06/15 09:58:37;;;;;;;8.13;4.10;;;28.40;99.90;;;;;;5074454;28;20407;-74
2023/06/15 10:01:10;;;;;;;9.43;4.32;;;28.60;99.90;;;;;;5078566;28;20418;-74
2023/06/15 10:03:43;;;;;;;8.85;4.32;;;28.70;99.90;;;;;;5053846;28;20559;-75
2023/06/15 10:06:17;;;;;;;10.43;3.92;;;28.80;99.90;;;;;;5060126;28;21251;-75
2023/06/15 10:08:51;;;;;;;8.77;3.97;;;28.80;99.90;;;;;;5062017;28;20411;-74
2023/06/15 10:11:20;;;;;;;11.35;4.47;;;28.90;99.90;;;;;;5054621;28;20591;-75
2023/06/15 10:14:17;;;;;;;10.77;4.37;;;28.90;99.90;;;;;;5053433;28;20407;-74
2023/06/15 10:16:51;;;;;;;9.65;4.07;;;28.90;99.90;;;;;;5045423;28;20728;-74
2023/06/15 10:19:23;;;;;;;9.60;3.80;;;28.60;99.90;;;;;;5058630;28;20409;-75
2023/06/15 10:21:50;;;;;;;8.85;3.65;;;28.60;99.90;;;;;;5062397;28;20405;-75
2023/06/15 10:24:21;;;;;;;9.63;4.15;;;28.80;99.90;;;;;;5055611;28;20425;-75
2023/06/15 10:26:47;;;;;;;9.93;3.67;;;28.90;99.90;;;;;;5059846;28;20419;-75
2023/06/15 10:29:43;;;;;;;7.15;3.67;;;28.80;99.90;;;;;;5061346;28;20416;-75
2023/06/15 10:32:28;;;;;;;8.50;3.97;;;28.80;99.90;;;;;;5060652;28;20410;-75
2023/06/15 10:35:09;;;;;;;8.95;3.83;;;28.80;99.90;;;;;;5060399;28;20417;-75
2023/06/15 10:38:12;;;;;;;8.35;3.78;;;28.70;99.90;;;;;;5069824;28;20498;-75
2023/06/15 10:40:47;;;;;;;7.75;3.70;;;28.60;99.90;;;;;;5054809;28;20421;-75
2023/06/15 10:43:19;;;;;;;8.18;3.55;;;28.60;99.90;;;;;;5058228;28;21366;-75
2023/06/15 10:45:46;;;;;;;10.18;3.70;;;28.70;99.90;;;;;;5064016;28;20494;-75
2023/06/15 10:48:38;;;;;;;7.28;3.60;;;28.70;99.90;;;;;;5071483;28;20402;-75
2023/06/15 10:51:09;;;;;;;6.45;3.40;;;28.70;99.90;;;;;;5071301;28;20415;-75
2023/06/15 10:53:43;;;;;;;7.80;3.65;;;28.80;99.90;;;;;;5059574;28;20407;-75
2023/06/15 10:56:22;;;;;;;9.13;3.80;;;28.80;99.90;;;;;;5053525;28;20483;-75
2023/06/15 10:58:58;;;;;;;7.03;3.50;;;28.70;99.90;;;;;;5038641;28;20452;-75
2023/06/15 11:01:32;;;;;;;6.38;3.40;;;28.50;99.90;;;;;;5058336;28;20404;-75
2023/06/15 11:04:30;;;;;;;8.75;3.58;;;28.40;99.90;;;;;;5066338;28;20411;-75
2023/06/15 11:07:02;;;;;;;8.15;3.33;;;28.30;99.90;;;;;;5067813;28;20774;-75
2023/06/15 11:09:35;;;;;;;7.37;3.47;;;28.40;99.90;;;;;;5059148;28;20411;-75
2023/06/15 11:12:22;;;;;;;9.18;3.75;;;28.30;99.90;;;;;;5059374;28;20415;-75
2023/06/15 11:14:51;;;;;;;9.40;3.40;;;28.40;99.90;;;;;;5065845;28;20515;-75
2023/06/15 11:17:20;;;;;;;9.17;3.70;;;28.40;99.90;;;;;;5058443;28;20409;-75
2023/06/15 11:19:46;;;;;;;10.80;3.53;;;28.40;99.90;;;;;;5045119;28;20496;-75
2023/06/15 11:22:28;;;;;;;9.38;3.67;;;28.40;99.90;;;;;;5063665;28;21157;-75
2023/06/15 11:24:57;;;;;;;8.18;3.42;;;28.30;99.90;;;;;;5058324;28;20433;-75
2023/06/15 11:27:23;;;;;;;7.80;3.58;;;28.30;99.90;;;;;;5062002;28;20397;-75
2023/06/15 11:29:56;;;;;;;7.57;3.63;;;28.30;99.90;;;;;;5061523;28;20414;-76
2023/06/15 11:32:27;;;;;;;8.90;3.70;;;28.30;99.90;;;;;;5075229;28;20474;-75
2023/06/15 11:35:03;;;;;;;8.90;3.70;;;28.30;99.90;;;;;;5059610;28;20417;-74
2023/06/15 11:37:30;;;;;;;7.93;3.60;;;28.40;99.90;;;;;;5065997;28;20506;-74
2023/06/15 11:39:56;;;;;;;8.48;3.50;;;28.30;99.90;;;;;;5061005;28;20923;-75
2023/06/15 11:42:23;;;;;;;8.27;3.50;;;28.30;99.90;;;;;;5058309;28;20428;-75
2023/06/15 11:44:50;;;;;;;8.30;3.77;;;28.30;99.90;;;;;;5060010;28;20424;-74
2023/06/15 11:47:20;;;;;;;8.45;3.70;;;28.20;99.90;;;;;;5061140;28;21076;-75
2023/06/15 11:49:46;;;;;;;6.38;3.40;;;28.20;99.90;;;;;;5056284;28;20402;-74
2023/06/15 11:52:15;;;;;;;8.63;3.33;;;28.10;99.90;;;;;;5065146;28;20435;-74
2023/06/15 11:54:41;;;;;;;8.93;3.40;;;28.20;99.90;;;;;;5061800;28;20415;-74
2023/06/15 11:57:07;;;;;;;7.17;3.37;;;28.20;99.90;;;;;;5056961;28;20503;-74
2023/06/15 11:59:35;;;;;;;7.90;3.57;;;28.30;99.90;;;;;;5058670;28;20720;-74
2023/06/15 12:02:04;;;;;;;9.23;3.10;;;28.30;99.90;;;;;;5060345;28;20413;-75
2023/06/15 12:04:32;;;;;;;4.78;3.05;;;28.30;99.90;;;;;;5057169;28;20416;-75
2023/06/15 12:07:08;;;;;;;7.83;3.30;;;28.20;99.90;;;;;;5067399;28;21247;-74
2023/06/15 12:09:35;;;;;;;6.53;2.92;;;28.30;99.90;;;;;;5058771;28;20917;-75
2023/06/15 12:12:10;;;;;;;6.47;3.33;;;28.30;99.90;;;;;;5053488;28;20439;-75
2023/06/15 12:14:43;;;;;;;7.22;3.00;;;28.40;99.90;;;;;;5055250;28;20417;-75
2023/06/15 12:17:09;;;;;;;7.95;3.00;;;28.40;99.90;;;;;;5050907;28;20733;-75
2023/06/15 12:19:36;;;;;;;6.17;3.30;;;28.40;99.90;;;;;;5057614;28;20412;-75
2023/06/15 12:22:05;;;;;;;6.45;3.10;;;28.40;99.90;;;;;;5053112;28;20411;-74
2023/06/15 12:24:38;;;;;;;7.32;3.30;;;28.40;99.90;;;;;;5048021;28;20527;-74
2023/06/15 12:27:16;;;;;;;5.65;2.70;;;28.50;99.90;;;;;;5052604;28;20420;-75
2023/06/15 12:29:42;;;;;;;9.68;3.28;;;28.40;99.90;;;;;;5052850;28;20421;-74
2023/06/15 12:32:09;;;;;;;7.27;3.10;;;28.50;99.90;;;;;;5055550;28;20870;-74
2023/06/15 12:34:40;;;;;;;8.98;3.50;;;28.40;99.90;;;;;;5053201;28;20405;-74
2023/06/15 12:37:10;;;;;;;8.25;3.60;;;28.30;99.90;;;;;;5054861;28;20552;-75
2023/06/15 12:39:37;;;;;;;6.20;3.35;;;28.30;99.90;;;;;;5055539;28;20414;-74
2023/06/15 12:42:04;;;;;;;8.15;3.58;;;28.30;99.90;;;;;;5061411;28;20428;-74
2023/06/15 12:44:34;;;;;;;7.90;2.90;;;28.20;99.90;;;;;;5059273;28;20426;-74
2023/06/15 12:47:00;;;;;;;6.68;3.10;;;28.10;99.90;;;;;;5052896;28;20425;-74
2023/06/15 12:49:26;;;;;;;6.43;3.30;;;28.10;99.90;;;;;;5056884;28;20422;-74